X  CloseMetar Aviation Weather Data     EFPO Pori Airport

Temperature

19°C Temperature

17°C Dewpoint

88% Humidity



Wind

10 KM/H

 6 MPH

 3 M/S

 5 KTS



270°
Due West
Current Conditions

Clear Clear
Pressure 1017.92 (hPa) - 30.06 (in)
Visibility 6.2 (mi) - 10 (km)
Airport
Airport-code EFPO

Location Pori Airport 56 (km)

Metar:
EFPO 090450Z AUTO 27005KT 240V300 CAVOK 19/17 Q1018

Time: 09-08-2020 07:50